Terminal Aerodrome Forecast
Issued by NWS

Home | Current Version | Previous Version | Text Only | Print | Product List | Glossary On
Versions: 1 2 3 4 5 6 7 8 9 10 11 12 13 14 15 16 17 18 19 20 21
000
FTUS41 KPBZ 291246 AAA
TAFFKL
TAF AMD
KFKL 291246Z 2913/3012 00000KT 1SM BR OVC002
     FM291400 29003KT 1SM BR BKN002 BKN040
     FM291500 VRB03KT 5SM BR BKN015
     FM291600 35005KT P6SM BKN025
     FM291700 35005KT P6SM BKN050
      AMD LTD TO CLD VIS AND WIND=

USA.gov is the U.S. government's official web portal to all federal, state and local government web resources and services.